EGNX/EMA METAR and TAF weather

Enter ICAO airport designator
Station Type Date Time Source
EGNX METAR 2024/06/16 00:20 UTC NOAA

EGNX 160020Z 22007KT 8000 -RA FEW013 BKN038 10/09 Q0998


Station Type Date Time Source
EGNX Decoded METAR 2024/06/16 00:20 UTC NOAA

East Midlands, United Kingdom (EGNX) 52-50N 001-20W
Jun 15, 2024 - 08:20 PM EDT / 2024.06.16 0020 UTC
Wind: from the SW (220 degrees) at 8 MPH (7 KT):0
Visibility: 4 mile(s):0
Sky conditions: mostly cloudy
Weather: light rain
Temperature: 50 F (10 C)
Dew Point: 48 F (9 C)
Relative Humidity: 93%
Pressure (altimeter): 29.47 in. Hg (0998 hPa)
ob: EGNX 160020Z 22007KT 8000 -RA FEW013 BKN038 10/09 Q0998
cycle: 0

Station Type Date Time Source
EGNX TAF 2024/06/15 19:07 UTC NOAA